createdAt,value
2019-05-23T00:01:23.788Z,32.79
2019-05-23T00:04:06.836Z,32.79
2019-05-23T00:06:40.030Z,32.79
2019-05-23T00:09:16.844Z,32.78
2019-05-23T00:12:20.388Z,32.75
2019-05-23T00:14:56.379Z,32.73
2019-05-23T00:17:30.159Z,32.73
2019-05-23T00:20:02.627Z,32.69
2019-05-23T00:22:36.608Z,32.68
2019-05-23T00:25:11.170Z,32.66
2019-05-23T00:27:45.154Z,32.62
2019-05-23T00:30:24.538Z,32.61
2019-05-23T00:33:00.356Z,32.54
2019-05-23T00:35:33.807Z,32.50
2019-05-23T00:38:06.221Z,32.44
2019-05-23T00:40:39.306Z,32.40
2019-05-23T00:43:11.716Z,32.35
2019-05-23T00:45:45.762Z,32.33
2019-05-23T00:48:18.880Z,32.25
2019-05-23T00:50:53.125Z,32.18
2019-05-23T00:53:26.655Z,32.12
2019-05-23T00:56:00.478Z,32.03
2019-05-23T00:58:34.977Z,31.94
2019-05-23T01:01:09.897Z,31.86
2019-05-23T01:03:43.285Z,31.81
2019-05-23T01:06:17.894Z,31.80
2019-05-23T01:08:50.494Z,31.79
2019-05-23T01:11:24.512Z,31.78
2019-05-23T01:13:58.339Z,31.75
2019-05-23T01:16:33.168Z,31.75
2019-05-23T01:19:07.116Z,31.71
2019-05-23T01:22:10.023Z,31.68
2019-05-23T01:24:45.775Z,31.63
2019-05-23T01:27:20.012Z,31.66
2019-05-23T01:29:52.740Z,31.59
2019-05-23T01:32:43.821Z,31.57
2019-05-23T01:35:20.708Z,31.55
2019-05-23T01:37:57.314Z,31.53
2019-05-23T01:40:30.287Z,31.51
2019-05-23T01:43:04.608Z,31.48
2019-05-23T01:45:38.672Z,31.46
2019-05-23T01:48:11.646Z,31.42
2019-05-23T01:51:04.624Z,31.39
2019-05-23T01:53:37.628Z,31.33
2019-05-23T01:56:11.272Z,31.29
2019-05-23T01:58:44.179Z,31.24
2019-05-23T02:01:17.178Z,31.19
2019-05-23T02:03:49.519Z,31.17
2019-05-23T02:06:22.110Z,31.14
2019-05-23T02:08:54.890Z,31.12
2019-05-23T02:11:27.888Z,31.09
2019-05-23T02:14:01.383Z,31.06
2019-05-23T02:16:34.830Z,31.05
2019-05-23T02:19:07.455Z,31.03
2019-05-23T02:21:40.068Z,31.01
2019-05-23T02:24:13.820Z,30.99
2019-05-23T02:26:47.168Z,30.98
2019-05-23T02:29:21.023Z,30.97
2019-05-23T02:31:53.653Z,30.92
2019-05-23T02:34:26.874Z,30.90
2019-05-23T02:37:01.065Z,30.84
2019-05-23T02:39:49.409Z,30.81
2019-05-23T02:42:32.833Z,30.76
2019-05-23T02:45:07.283Z,30.76
2019-05-23T02:47:42.983Z,30.72
2019-05-23T02:50:26.459Z,30.68
2019-05-23T02:53:01.769Z,30.61
2019-05-23T02:55:41.017Z,30.52
2019-05-23T02:58:39.650Z,30.47
2019-05-23T03:02:21.448Z,30.42
2019-05-23T03:04:54.667Z,30.35
2019-05-23T03:07:33.404Z,30.28
2019-05-23T03:10:09.378Z,30.19
2019-05-23T03:12:43.980Z,30.13
2019-05-23T03:15:17.523Z,30.05
2019-05-23T03:17:56.064Z,29.97
2019-05-23T03:20:30.265Z,29.89
2019-05-23T03:23:12.031Z,29.83
2019-05-23T03:26:44.617Z,29.75
2019-05-23T03:29:17.233Z,29.64
2019-05-23T03:31:54.246Z,29.58
2019-05-23T03:34:29.560Z,29.50
2019-05-23T03:37:02.764Z,29.44
2019-05-23T03:39:34.980Z,29.34
2019-05-23T03:42:07.782Z,29.27
2019-05-23T03:44:40.859Z,29.21
2019-05-23T03:47:17.343Z,29.15
2019-05-23T03:49:50.629Z,29.06
2019-05-23T03:52:26.011Z,29.05
2019-05-23T03:54:59.771Z,28.99
2019-05-23T03:57:32.778Z,28.93
2019-05-23T04:00:07.503Z,28.85
2019-05-23T04:02:41.196Z,28.80
2019-05-23T04:05:15.424Z,28.72
2019-05-23T04:07:47.899Z,28.67
2019-05-23T04:10:20.886Z,28.61
2019-05-23T04:12:54.723Z,28.55
2019-05-23T04:15:27.330Z,28.46
2019-05-23T04:17:59.882Z,28.38
2019-05-23T04:20:33.143Z,28.30
2019-05-23T04:23:06.184Z,28.22
2019-05-23T04:25:38.439Z,28.13
2019-05-23T04:28:10.846Z,28.02
2019-05-23T04:30:43.490Z,27.95
2019-05-23T04:33:16.200Z,27.90
2019-05-23T04:35:49.469Z,27.78
2019-05-23T04:38:21.808Z,27.71
2019-05-23T04:40:54.256Z,27.64
2019-05-23T04:43:26.924Z,27.57
2019-05-23T04:45:59.448Z,27.48
2019-05-23T04:48:31.965Z,27.39
2019-05-23T04:51:04.553Z,27.33
2019-05-23T04:53:38.115Z,27.22
2019-05-23T04:56:11.018Z,27.13
2019-05-23T04:58:44.984Z,27.02
2019-05-23T05:01:19.821Z,26.91
2019-05-23T05:03:53.423Z,26.81
2019-05-23T05:06:25.973Z,26.69
2019-05-23T05:08:59.551Z,26.61
2019-05-23T05:11:31.819Z,26.53
2019-05-23T05:14:06.530Z,26.43
2019-05-23T05:16:39.573Z,26.34
2019-05-23T05:19:11.707Z,26.23
2019-05-23T05:21:44.173Z,26.09
2019-05-23T05:24:16.438Z,25.98
2019-05-23T05:26:49.030Z,25.82
2019-05-23T05:29:21.244Z,25.65
2019-05-23T05:31:53.881Z,25.51
2019-05-23T05:34:26.302Z,25.41
2019-05-23T05:36:58.601Z,25.34
2019-05-23T05:39:30.885Z,25.29
2019-05-23T05:42:03.185Z,25.24
2019-05-23T05:44:35.566Z,25.16
2019-05-23T05:47:09.514Z,25.09
2019-05-23T05:49:42.459Z,24.99
2019-05-23T05:52:14.904Z,24.90
2019-05-23T05:54:47.167Z,24.77
2019-05-23T05:57:20.427Z,24.66
2019-05-23T05:59:52.681Z,24.59
2019-05-23T06:02:26.360Z,24.55
2019-05-23T06:04:58.744Z,24.46
2019-05-23T06:07:38.661Z,24.41
2019-05-23T06:10:13.589Z,24.33
2019-05-23T06:12:46.354Z,24.26
2019-05-23T06:15:19.987Z,24.21
2019-05-23T06:17:52.340Z,24.16
2019-05-23T06:20:24.927Z,24.09
2019-05-23T06:22:57.398Z,24.02
2019-05-23T06:25:30.264Z,23.99
2019-05-23T06:28:03.892Z,23.95
2019-05-23T06:30:38.019Z,23.95
2019-05-23T06:33:22.415Z,23.94
2019-05-23T06:35:44.439Z,23.90
2019-05-23T06:38:16.780Z,23.89
2019-05-23T06:40:49.620Z,23.93
2019-05-23T06:43:22.126Z,23.94
2019-05-23T06:45:54.737Z,23.90
2019-05-23T06:48:27.107Z,23.88
2019-05-23T06:50:59.874Z,23.88
2019-05-23T06:53:32.267Z,23.86
2019-05-23T06:56:05.087Z,23.86
2019-05-23T06:58:37.255Z,23.85
2019-05-23T07:01:09.455Z,23.84
2019-05-23T07:03:43.579Z,23.87
2019-05-23T07:06:20.417Z,23.89
2019-05-23T07:08:53.881Z,23.85
2019-05-23T07:11:28.959Z,23.86
2019-05-23T07:14:01.425Z,23.82
2019-05-23T07:16:34.791Z,23.77
2019-05-23T07:19:07.162Z,23.68
2019-05-23T07:21:39.420Z,23.64
2019-05-23T07:24:12.322Z,23.58
2019-05-23T07:26:46.379Z,23.54
2019-05-23T07:29:19.006Z,23.50
2019-05-23T07:31:51.774Z,23.42
2019-05-23T07:34:24.385Z,23.36
2019-05-23T07:36:56.826Z,23.29
2019-05-23T07:39:29.294Z,23.19
2019-05-23T07:42:01.968Z,23.14
2019-05-23T07:44:47.445Z,23.12
2019-05-23T07:47:11.235Z,23.09
2019-05-23T07:49:44.046Z,23.09
2019-05-23T07:52:16.513Z,23.06
2019-05-23T07:55:03.411Z,23.08
2019-05-23T07:57:36.541Z,23.08
2019-05-23T08:00:14.548Z,23.00
2019-05-23T08:02:48.859Z,22.96
2019-05-23T08:05:21.768Z,22.97
2019-05-23T08:07:54.431Z,22.93
2019-05-23T08:10:33.764Z,22.81
2019-05-23T08:13:01.581Z,22.68
2019-05-23T08:15:34.964Z,22.57
2019-05-23T08:18:07.217Z,22.46
2019-05-23T08:20:39.388Z,22.40
2019-05-23T08:23:11.722Z,22.29
2019-05-23T08:25:43.988Z,22.22
2019-05-23T08:28:16.897Z,22.16
2019-05-23T08:30:49.263Z,22.11
2019-05-23T08:33:21.655Z,22.13
2019-05-23T08:35:55.106Z,22.10
2019-05-23T08:38:27.942Z,22.13
2019-05-23T08:41:00.714Z,22.21
2019-05-23T08:43:33.362Z,22.17
2019-05-23T08:46:05.976Z,22.11
2019-05-23T08:48:38.301Z,22.03
2019-05-23T08:51:11.102Z,22.04
2019-05-23T08:53:43.463Z,22.06
2019-05-23T08:56:18.903Z,22.08
2019-05-23T08:58:50.398Z,22.17
2019-05-23T09:01:23.029Z,22.20
2019-05-23T09:03:55.844Z,22.28
2019-05-23T09:06:29.826Z,22.36
2019-05-23T09:09:22.169Z,22.31
2019-05-23T09:11:39.589Z,22.10
2019-05-23T09:14:11.917Z,22.18
2019-05-23T09:16:44.789Z,22.09
2019-05-23T09:19:17.213Z,22.09
2019-05-23T09:21:49.840Z,22.05
2019-05-23T09:24:23.042Z,22.05
2019-05-23T09:26:55.498Z,22.10
2019-05-23T09:29:28.710Z,22.13
2019-05-23T09:32:01.336Z,21.99
2019-05-23T09:34:34.166Z,21.98
2019-05-23T09:37:08.564Z,22.01
2019-05-23T09:39:42.345Z,22.05
2019-05-23T09:42:15.333Z,22.05
2019-05-23T09:44:47.804Z,22.08
2019-05-23T09:47:19.971Z,22.04
2019-05-23T09:49:54.388Z,21.91
2019-05-23T09:52:27.297Z,21.87
2019-05-23T09:54:59.639Z,21.80
2019-05-23T09:57:31.861Z,21.79
2019-05-23T10:00:04.205Z,21.71
2019-05-23T10:02:36.575Z,21.58
2019-05-23T10:05:12.329Z,21.58
2019-05-23T10:07:45.091Z,21.54
2019-05-23T10:10:19.262Z,21.42
2019-05-23T10:12:51.541Z,21.25
2019-05-23T10:15:46.806Z,21.04
2019-05-23T10:18:20.792Z,21.00
2019-05-23T10:20:53.382Z,21.05
2019-05-23T10:23:25.609Z,20.84
2019-05-23T10:25:57.971Z,20.82
2019-05-23T10:28:30.186Z,20.76
2019-05-23T10:31:02.894Z,20.84
2019-05-23T10:33:35.108Z,20.80
2019-05-23T10:36:07.541Z,20.75
2019-05-23T10:38:39.829Z,20.78
2019-05-23T10:41:12.279Z,20.72
2019-05-23T10:43:44.786Z,20.70
2019-05-23T10:46:17.204Z,20.55
2019-05-23T10:48:49.867Z,20.64
2019-05-23T10:51:22.426Z,20.60
2019-05-23T10:53:54.741Z,20.63
2019-05-23T10:56:27.415Z,20.44
2019-05-23T10:59:00.014Z,20.44
2019-05-23T11:01:32.473Z,20.39
2019-05-23T11:04:05.655Z,20.30
2019-05-23T11:06:38.655Z,20.39
2019-05-23T11:09:12.851Z,20.30
2019-05-23T11:11:46.919Z,20.27
2019-05-23T11:14:19.585Z,20.26
2019-05-23T11:16:52.804Z,20.31
2019-05-23T11:19:26.641Z,20.31
2019-05-23T11:21:59.710Z,20.25
2019-05-23T11:24:32.171Z,20.18
2019-05-23T11:27:05.159Z,20.11
2019-05-23T11:29:37.347Z,20.08
2019-05-23T11:32:10.782Z,20.01
2019-05-23T11:34:43.426Z,19.89
2019-05-23T11:37:15.978Z,19.94
2019-05-23T11:39:50.688Z,19.88
2019-05-23T11:42:22.518Z,19.71
2019-05-23T11:44:54.969Z,19.74
2019-05-23T11:47:31.859Z,19.70
2019-05-23T11:50:01.873Z,19.59
2019-05-23T11:52:34.276Z,19.43
2019-05-23T11:55:07.109Z,19.37
2019-05-23T11:57:39.768Z,19.38
2019-05-23T12:00:16.315Z,19.27
2019-05-23T12:02:48.986Z,19.18
2019-05-23T12:05:27.762Z,19.22
2019-05-23T12:08:00.173Z,19.13
2019-05-23T12:10:32.430Z,19.14
2019-05-23T12:13:04.786Z,19.12
2019-05-23T12:15:38.996Z,19.20
2019-05-23T12:18:12.222Z,19.18
2019-05-23T12:20:44.456Z,19.17
2019-05-23T12:23:16.683Z,19.22
2019-05-23T12:25:49.069Z,19.17
2019-05-23T12:28:21.846Z,19.07
2019-05-23T12:30:54.317Z,18.99
2019-05-23T12:33:26.523Z,18.93
2019-05-23T12:35:58.862Z,18.85
2019-05-23T12:38:31.063Z,18.80
2019-05-23T12:41:04.910Z,18.71
2019-05-23T12:43:37.484Z,18.73
2019-05-23T12:46:10.035Z,18.76
2019-05-23T12:48:52.232Z,18.76
2019-05-23T12:51:27.092Z,18.69
2019-05-23T12:53:59.317Z,18.65
2019-05-23T12:56:31.634Z,18.62
2019-05-23T12:59:05.367Z,18.47
2019-05-23T13:01:39.970Z,18.46
2019-05-23T13:04:12.505Z,18.47
2019-05-23T13:06:44.716Z,18.45
2019-05-23T13:09:21.831Z,18.42
2019-05-23T13:11:55.543Z,18.49
2019-05-23T13:14:28.323Z,18.55
2019-05-23T13:17:01.585Z,18.54
2019-05-23T13:19:34.440Z,18.54
2019-05-23T13:22:08.522Z,18.48
2019-05-23T13:24:52.158Z,18.45
2019-05-23T13:27:14.756Z,18.51
2019-05-23T13:29:47.318Z,18.51
2019-05-23T13:32:19.628Z,18.47
2019-05-23T13:34:52.295Z,18.41
2019-05-23T13:37:24.847Z,18.42
2019-05-23T13:39:57.076Z,18.44
2019-05-23T13:42:29.532Z,18.39
2019-05-23T13:45:02.746Z,18.44
2019-05-23T13:47:35.235Z,18.46
2019-05-23T13:50:08.372Z,18.46
2019-05-23T13:52:41.259Z,18.35
2019-05-23T13:55:13.607Z,18.36
2019-05-23T13:57:46.005Z,18.30
2019-05-23T14:00:20.224Z,18.23
2019-05-23T14:02:53.031Z,18.19
2019-05-23T14:05:25.737Z,18.26
2019-05-23T14:08:11.669Z,18.19
2019-05-23T14:10:32.445Z,18.12
2019-05-23T14:13:05.778Z,18.17
2019-05-23T14:15:42.116Z,18.02
2019-05-23T14:18:19.260Z,18.02
2019-05-23T14:20:51.636Z,18.04
2019-05-23T14:23:31.197Z,18.05
2019-05-23T14:26:05.382Z,18.08
2019-05-23T14:28:38.347Z,17.97
2019-05-23T14:31:15.735Z,18.03
2019-05-23T14:33:55.351Z,18.08
2019-05-23T14:36:49.586Z,18.06
2019-05-23T14:39:34.559Z,18.09
2019-05-23T14:42:21.654Z,18.12
2019-05-23T14:44:54.205Z,18.10
2019-05-23T14:47:44.518Z,18.15
2019-05-23T14:50:44.569Z,18.13
2019-05-23T14:53:19.728Z,18.10
2019-05-23T14:56:12.635Z,18.11
2019-05-23T14:58:44.935Z,18.07
2019-05-23T15:01:17.654Z,18.09
2019-05-23T15:03:50.310Z,18.08
2019-05-23T15:06:23.625Z,18.11
2019-05-23T15:09:00.625Z,18.14
2019-05-23T15:11:36.130Z,18.10
2019-05-23T15:14:08.524Z,18.09
2019-05-23T15:16:41.903Z,18.08
2019-05-23T15:19:14.227Z,18.12
2019-05-23T15:21:47.024Z,18.08
2019-05-23T15:24:19.575Z,18.13
2019-05-23T15:26:51.981Z,18.15
2019-05-23T15:29:28.845Z,18.20
2019-05-23T15:32:02.561Z,18.24
2019-05-23T15:34:34.833Z,18.26
2019-05-23T15:37:06.443Z,18.26
2019-05-23T15:39:39.104Z,18.28
2019-05-23T15:42:11.393Z,18.29
2019-05-23T15:44:43.956Z,18.28
2019-05-23T15:47:17.396Z,18.30
2019-05-23T15:49:51.170Z,18.30
2019-05-23T15:52:51.203Z,18.32
2019-05-23T15:55:44.146Z,18.36
2019-05-23T15:58:40.934Z,18.37
2019-05-23T16:01:16.302Z,18.39
2019-05-23T16:03:54.020Z,18.46
2019-05-23T16:06:27.329Z,18.50
2019-05-23T16:08:59.962Z,18.50
2019-05-23T16:11:32.266Z,18.52
2019-05-23T16:14:05.403Z,18.56
2019-05-23T16:16:37.835Z,18.57
2019-05-23T16:19:10.142Z,18.59
2019-05-23T16:21:42.558Z,18.62
2019-05-23T16:24:15.323Z,18.61
2019-05-23T16:26:48.227Z,18.63
2019-05-23T16:29:21.550Z,18.63
2019-05-23T16:31:54.074Z,18.65
2019-05-23T16:34:27.090Z,18.66
2019-05-23T16:36:59.440Z,18.69
2019-05-23T16:39:45.879Z,18.70
2019-05-23T16:42:08.592Z,18.75
2019-05-23T16:44:41.646Z,18.78
2019-05-23T16:47:14.541Z,18.80
2019-05-23T16:49:46.853Z,18.85
2019-05-23T16:52:19.169Z,18.87
2019-05-23T16:54:53.807Z,18.88
2019-05-23T16:57:57.256Z,18.90
2019-05-23T17:00:53.448Z,18.94
2019-05-23T17:03:57.046Z,18.98
2019-05-23T17:06:34.242Z,18.99
2019-05-23T17:09:25.191Z,19.03
2019-05-23T17:12:16.728Z,19.04
2019-05-23T17:15:09.106Z,19.10
2019-05-23T17:18:12.230Z,19.13
2019-05-23T17:21:08.925Z,19.15
2019-05-23T17:24:02.625Z,19.17
2019-05-23T17:26:59.792Z,19.20
2019-05-23T17:29:54.662Z,19.23
2019-05-23T17:32:30.829Z,19.27
2019-05-23T17:35:03.223Z,19.29
2019-05-23T17:37:35.376Z,19.29
2019-05-23T17:40:23.769Z,19.30
2019-05-23T17:42:46.045Z,19.31
2019-05-23T17:45:18.717Z,19.33
2019-05-23T17:47:51.497Z,19.34
2019-05-23T17:50:24.973Z,19.35
2019-05-23T17:52:57.380Z,19.36
2019-05-23T17:55:30.020Z,19.37
2019-05-23T17:58:02.552Z,19.37
2019-05-23T18:00:40.496Z,19.39
2019-05-23T18:03:15.423Z,19.42
2019-05-23T18:05:48.166Z,19.44
2019-05-23T18:08:27.842Z,19.46
2019-05-23T18:11:02.537Z,19.47
2019-05-23T18:13:35.129Z,19.47
2019-05-23T18:16:07.802Z,19.49
2019-05-23T18:18:40.443Z,19.50
2019-05-23T18:21:13.536Z,19.53
2019-05-23T18:23:46.055Z,19.54
2019-05-23T18:26:19.287Z,19.55
2019-05-23T18:28:51.627Z,19.57
2019-05-23T18:31:28.138Z,19.59
2019-05-23T18:34:00.400Z,19.59
2019-05-23T18:36:33.302Z,19.62
2019-05-23T18:39:08.004Z,19.63
2019-05-23T18:41:41.271Z,19.66
2019-05-23T18:44:13.802Z,19.68
2019-05-23T18:46:49.479Z,19.68
2019-05-23T18:49:22.104Z,19.68
2019-05-23T18:51:54.516Z,19.67
2019-05-23T18:54:26.831Z,19.69
2019-05-23T18:56:59.228Z,19.67
2019-05-23T18:59:32.023Z,19.64
2019-05-23T19:02:05.156Z,19.63
2019-05-23T19:04:37.886Z,19.61
2019-05-23T19:07:12.178Z,19.59
2019-05-23T19:09:46.091Z,19.61
2019-05-23T19:12:19.740Z,19.61
2019-05-23T19:14:54.131Z,19.60
2019-05-23T19:17:26.981Z,19.57
2019-05-23T19:19:59.516Z,19.60
2019-05-23T19:22:32.481Z,19.57
2019-05-23T19:25:04.657Z,19.59
2019-05-23T19:27:37.440Z,19.60
2019-05-23T19:30:10.671Z,19.63
2019-05-23T19:32:43.109Z,19.65
2019-05-23T19:35:16.122Z,19.61
2019-05-23T19:37:49.155Z,19.65
2019-05-23T19:40:21.962Z,19.67
2019-05-23T19:42:54.459Z,19.67
2019-05-23T19:45:26.693Z,19.69
2019-05-23T19:47:59.792Z,19.72
2019-05-23T19:50:33.299Z,19.78
2019-05-23T19:53:06.563Z,19.80
2019-05-23T19:55:40.470Z,19.83
2019-05-23T19:58:14.277Z,19.85
2019-05-23T20:00:48.486Z,19.85
2019-05-23T20:03:21.749Z,19.87
2019-05-23T20:05:55.192Z,19.86
2019-05-23T20:08:27.627Z,19.88
2019-05-23T20:11:00.381Z,19.88
2019-05-23T20:13:32.863Z,19.87
2019-05-23T20:16:05.721Z,19.90
2019-05-23T20:18:38.684Z,19.91
2019-05-23T20:21:11.089Z,19.91
2019-05-23T20:23:43.602Z,19.90
2019-05-23T20:26:16.136Z,19.90
2019-05-23T20:28:48.703Z,19.93
2019-05-23T20:31:20.971Z,19.96
2019-05-23T20:33:54.132Z,19.98
2019-05-23T20:36:26.598Z,20.00
2019-05-23T20:38:59.019Z,20.03
2019-05-23T20:41:31.469Z,20.05
2019-05-23T20:44:04.091Z,20.09
2019-05-23T20:46:36.657Z,20.10
2019-05-23T20:49:09.202Z,20.12
2019-05-23T20:51:42.025Z,20.19
2019-05-23T20:54:14.417Z,20.19
2019-05-23T20:56:46.963Z,20.22
2019-05-23T20:59:19.299Z,20.23
2019-05-23T21:01:52.444Z,20.27
2019-05-23T21:04:24.899Z,20.31
2019-05-23T21:06:57.426Z,20.32
2019-05-23T21:09:30.082Z,20.35
2019-05-23T21:12:02.406Z,20.37
2019-05-23T21:14:35.717Z,20.40
2019-05-23T21:17:09.086Z,20.42
2019-05-23T21:19:41.418Z,20.44
2019-05-23T21:22:13.560Z,20.46
2019-05-23T21:24:45.741Z,20.47
2019-05-23T21:27:18.004Z,20.50
2019-05-23T21:29:50.409Z,20.52
2019-05-23T21:32:22.840Z,20.56
2019-05-23T21:34:55.188Z,20.58
2019-05-23T21:37:27.854Z,20.63
2019-05-23T21:40:00.590Z,20.63
2019-05-23T21:42:53.397Z,20.67
2019-05-23T21:45:26.046Z,20.70
2019-05-23T21:47:59.223Z,20.73
2019-05-23T21:50:31.448Z,20.74
2019-05-23T21:53:03.968Z,20.80
2019-05-23T21:55:41.567Z,20.83
2019-05-23T21:58:15.186Z,20.85
2019-05-23T22:01:28.932Z,20.86
2019-05-23T22:04:14.805Z,20.87
2019-05-23T22:06:55.695Z,20.94
2019-05-23T22:09:28.155Z,20.97
2019-05-23T22:12:01.030Z,21.02
2019-05-23T22:14:33.427Z,21.06
2019-05-23T22:17:05.743Z,21.11
2019-05-23T22:19:37.986Z,21.14
2019-05-23T22:22:10.355Z,21.19
2019-05-23T22:24:42.555Z,21.22
2019-05-23T22:27:15.042Z,21.23
2019-05-23T22:29:47.261Z,21.23
2019-05-23T22:32:21.189Z,21.27
2019-05-23T22:35:00.877Z,21.25
2019-05-23T22:37:33.318Z,21.25
2019-05-23T22:40:06.887Z,21.24
2019-05-23T22:42:39.718Z,21.29
2019-05-23T22:45:15.753Z,21.26
2019-05-23T22:47:48.165Z,21.26
2019-05-23T22:50:20.486Z,21.29
2019-05-23T22:52:53.002Z,21.30
2019-05-23T22:55:25.239Z,21.30
2019-05-23T22:57:57.535Z,21.31
2019-05-23T23:00:34.832Z,21.30
2019-05-23T23:03:07.138Z,21.28
2019-05-23T23:05:39.323Z,21.26
2019-05-23T23:08:11.701Z,21.21
2019-05-23T23:10:44.303Z,21.22
2019-05-23T23:13:17.047Z,21.19
2019-05-23T23:15:50.057Z,21.17
2019-05-23T23:18:22.583Z,21.18
2019-05-23T23:20:54.928Z,21.17
2019-05-23T23:23:27.809Z,21.15
2019-05-23T23:26:00.139Z,21.16
2019-05-23T23:28:32.478Z,21.16
2019-05-23T23:31:04.915Z,21.15
2019-05-23T23:33:38.003Z,21.16
2019-05-23T23:36:10.501Z,21.16
2019-05-23T23:38:42.946Z,21.15
2019-05-23T23:41:15.572Z,21.15
2019-05-23T23:43:58.987Z,21.16
2019-05-23T23:46:39.339Z,21.14
2019-05-23T23:49:29.062Z,21.11
2019-05-23T23:52:20.785Z,21.12
2019-05-23T23:55:10.421Z,21.11
2019-05-23T23:57:59.389Z,21.12
